createdAt,value
2022-11-20T00:01:34.503Z,84.70
2022-11-20T00:04:03.157Z,84.50
2022-11-20T00:06:31.696Z,84.00
2022-11-20T00:09:02.578Z,84.00
2022-11-20T00:11:34.137Z,84.40
2022-11-20T00:14:04.196Z,84.30
2022-11-20T00:16:34.534Z,84.50
2022-11-20T00:19:02.989Z,84.50
2022-11-20T00:21:31.436Z,84.40
2022-11-20T00:24:01.229Z,84.30
2022-11-20T00:26:31.150Z,84.80
2022-11-20T00:29:03.088Z,84.60
2022-11-20T00:31:34.117Z,84.70
2022-11-20T00:34:02.147Z,84.80
2022-11-20T00:36:34.582Z,84.80
2022-11-20T00:39:02.980Z,85.30
2022-11-20T00:41:32.134Z,85.20
2022-11-20T00:44:01.961Z,85.10
2022-11-20T00:46:30.741Z,85.00
2022-11-20T00:48:59.466Z,85.00
2022-11-20T00:51:29.323Z,84.90
2022-11-20T00:53:59.109Z,85.10
2022-11-20T00:56:27.753Z,85.00
2022-11-20T00:58:56.129Z,85.00
2022-11-20T01:01:30.043Z,84.90
2022-11-20T01:04:00.574Z,84.90
2022-11-20T01:06:31.431Z,85.20
2022-11-20T01:09:01.803Z,85.30
2022-11-20T01:11:32.922Z,85.10
2022-11-20T01:14:02.216Z,84.70
2022-11-20T01:16:35.103Z,84.80
2022-11-20T01:19:07.203Z,85.10
2022-11-20T01:21:38.280Z,85.10
2022-11-20T01:24:08.820Z,85.20
2022-11-20T01:26:41.117Z,85.10
2022-11-20T01:29:12.947Z,85.80
2022-11-20T01:31:42.741Z,85.80
2022-11-20T01:34:14.335Z,85.90
2022-11-20T01:36:44.002Z,86.40
2022-11-20T01:39:17.824Z,86.60
2022-11-20T01:42:09.662Z,86.70
2022-11-20T01:44:56.898Z,87.00
2022-11-20T01:47:33.925Z,87.20
2022-11-20T01:50:08.379Z,87.50
2022-11-20T01:52:41.951Z,87.50
2022-11-20T01:55:14.993Z,87.30
2022-11-20T01:57:44.040Z,87.60
2022-11-20T02:00:15.839Z,87.80
2022-11-20T02:02:49.738Z,87.90
2022-11-20T02:05:27.747Z,87.80
2022-11-20T02:07:58.485Z,88.20
2022-11-20T02:10:28.029Z,87.90
2022-11-20T02:13:14.128Z,88.30
2022-11-20T02:15:43.010Z,88.40
2022-11-20T02:18:13.634Z,88.60
2022-11-20T02:20:44.649Z,88.80
2022-11-20T02:23:15.324Z,89.00
2022-11-20T02:25:46.685Z,89.00
2022-11-20T02:28:14.989Z,89.00
2022-11-20T02:30:43.310Z,89.20
2022-11-20T02:33:11.740Z,88.80
2022-11-20T02:35:46.595Z,88.80
2022-11-20T02:38:16.600Z,89.10
2022-11-20T02:40:47.732Z,89.00
2022-11-20T02:43:18.874Z,89.30
2022-11-20T02:45:47.128Z,89.20
2022-11-20T02:48:15.392Z,89.20
2022-11-20T02:50:43.787Z,89.40
2022-11-20T02:53:12.079Z,89.10
2022-11-20T02:55:40.390Z,89.20
2022-11-20T02:58:10.074Z,89.50
2022-11-20T03:00:38.326Z,89.70
2022-11-20T03:03:06.628Z,89.80
2022-11-20T03:05:35.191Z,90.20
2022-11-20T03:08:03.535Z,90.20
2022-11-20T03:10:31.810Z,90.20
2022-11-20T03:13:00.066Z,90.40
2022-11-20T03:15:30.697Z,90.30
2022-11-20T03:17:58.949Z,90.30
2022-11-20T03:20:27.251Z,90.40
2022-11-20T03:22:56.981Z,90.40
2022-11-20T03:25:25.313Z,90.30
2022-11-20T03:27:54.502Z,90.20
2022-11-20T03:30:27.705Z,90.10
2022-11-20T03:33:00.206Z,90.00
2022-11-20T03:35:28.464Z,89.90
2022-11-20T03:37:56.768Z,89.90
2022-11-20T03:40:25.024Z,89.60
2022-11-20T03:42:53.398Z,89.60
2022-11-20T03:45:21.654Z,89.40
2022-11-20T03:47:50.133Z,89.20
2022-11-20T03:50:19.930Z,89.30
2022-11-20T03:52:48.248Z,89.50
2022-11-20T03:55:16.678Z,89.50
2022-11-20T03:57:44.946Z,89.20
2022-11-20T04:00:15.775Z,88.90
2022-11-20T04:02:44.085Z,88.80
2022-11-20T04:05:12.319Z,88.50
2022-11-20T04:07:42.009Z,88.80
2022-11-20T04:10:10.967Z,88.50
2022-11-20T04:12:39.196Z,88.50
2022-11-20T04:15:08.243Z,88.70
2022-11-20T04:17:36.568Z,88.80
2022-11-20T04:20:06.051Z,88.80
2022-11-20T04:22:34.324Z,88.80
2022-11-20T04:25:04.450Z,88.80
2022-11-20T04:27:33.481Z,88.90
2022-11-20T04:30:01.798Z,89.20
2022-11-20T04:32:30.235Z,89.20
2022-11-20T04:34:58.509Z,88.90
2022-11-20T04:37:26.707Z,88.60
2022-11-20T04:39:55.013Z,88.90
2022-11-20T04:42:30.588Z,88.60
2022-11-20T04:44:59.886Z,88.60
2022-11-20T04:47:28.251Z,88.70
2022-11-20T04:49:56.592Z,88.80
2022-11-20T04:52:24.929Z,89.10
2022-11-20T04:54:54.431Z,88.80
2022-11-20T04:57:24.138Z,88.90
2022-11-20T04:59:52.452Z,88.80
2022-11-20T05:02:20.996Z,88.60
2022-11-20T05:04:49.236Z,88.80
2022-11-20T05:07:17.805Z,88.60
2022-11-20T05:09:46.272Z,88.50
2022-11-20T05:12:14.554Z,88.40
2022-11-20T05:14:44.141Z,88.50
2022-11-20T05:17:13.687Z,88.70
2022-11-20T05:19:42.102Z,89.00
2022-11-20T05:22:10.374Z,89.00
2022-11-20T05:24:38.655Z,89.10
2022-11-20T05:27:07.102Z,89.00
2022-11-20T05:29:35.325Z,89.00
2022-11-20T05:32:06.834Z,88.90
2022-11-20T05:34:35.196Z,88.90
2022-11-20T05:37:03.896Z,88.90
2022-11-20T05:39:32.138Z,88.70
2022-11-20T05:42:14.264Z,88.50
2022-11-20T05:44:42.540Z,88.80
2022-11-20T05:47:12.196Z,88.90
2022-11-20T05:49:40.423Z,88.90
2022-11-20T05:52:08.651Z,89.00
2022-11-20T05:54:36.940Z,89.10
2022-11-20T05:57:07.494Z,89.20
2022-11-20T05:59:35.781Z,89.20
2022-11-20T06:02:04.023Z,89.10
2022-11-20T06:04:33.641Z,89.20
2022-11-20T06:07:02.017Z,89.40
2022-11-20T06:09:30.391Z,89.40
2022-11-20T06:11:58.680Z,89.50
2022-11-20T06:14:27.009Z,89.30
2022-11-20T06:16:55.422Z,89.40
2022-11-20T06:19:23.820Z,89.20
2022-11-20T06:21:53.577Z,89.30
2022-11-20T06:24:21.849Z,89.40
2022-11-20T06:26:50.162Z,89.30
2022-11-20T06:29:18.611Z,89.70
2022-11-20T06:31:46.992Z,89.70
2022-11-20T06:34:15.262Z,89.50
2022-11-20T06:36:43.505Z,89.70
2022-11-20T06:39:13.341Z,89.80
2022-11-20T06:41:41.619Z,89.80
2022-11-20T06:44:09.924Z,89.70
2022-11-20T06:46:38.172Z,89.90
2022-11-20T06:49:06.967Z,90.00
2022-11-20T06:51:35.417Z,89.80
2022-11-20T06:54:04.038Z,89.70
2022-11-20T06:56:33.599Z,89.70
2022-11-20T06:59:07.267Z,89.60
2022-11-20T07:01:36.057Z,89.50
2022-11-20T07:04:04.914Z,89.80
2022-11-20T07:06:33.509Z,89.90
2022-11-20T07:09:02.618Z,89.80
2022-11-20T07:11:30.916Z,89.70
2022-11-20T07:14:00.897Z,89.60
2022-11-20T07:16:29.217Z,89.80
2022-11-20T07:18:57.484Z,89.70
2022-11-20T07:21:25.804Z,89.60
2022-11-20T07:23:54.089Z,89.70
2022-11-20T07:26:22.533Z,89.80
2022-11-20T07:28:50.836Z,89.70
2022-11-20T07:31:20.609Z,89.50
2022-11-20T07:33:48.924Z,89.50
2022-11-20T07:36:17.578Z,89.60
2022-11-20T07:38:45.921Z,89.80
2022-11-20T07:41:14.171Z,89.80
2022-11-20T07:43:42.634Z,89.80
2022-11-20T07:46:10.944Z,89.70
2022-11-20T07:48:40.575Z,89.70
2022-11-20T07:51:09.226Z,89.60
2022-11-20T07:53:37.610Z,89.40
2022-11-20T07:56:06.619Z,89.60
2022-11-20T07:58:35.618Z,89.60
2022-11-20T08:01:08.570Z,89.70
2022-11-20T08:03:38.849Z,89.70
2022-11-20T08:06:09.835Z,89.60
2022-11-20T08:08:42.809Z,89.50
2022-11-20T08:11:28.845Z,89.40
2022-11-20T08:14:15.385Z,89.50
2022-11-20T08:16:45.819Z,89.70
2022-11-20T08:19:15.191Z,89.70
2022-11-20T08:21:45.730Z,89.70
2022-11-20T08:24:14.344Z,89.60
2022-11-20T08:26:43.250Z,89.50
2022-11-20T08:29:11.639Z,89.50
2022-11-20T08:31:40.175Z,89.30
2022-11-20T08:34:09.847Z,88.70
2022-11-20T08:36:39.131Z,88.60
2022-11-20T08:39:08.797Z,88.50
2022-11-20T08:41:37.803Z,88.40
2022-11-20T08:44:08.864Z,87.80
2022-11-20T08:46:38.879Z,88.10
2022-11-20T08:49:08.600Z,88.30
2022-11-20T08:51:37.511Z,88.60
2022-11-20T08:54:08.388Z,88.40
2022-11-20T08:56:37.233Z,88.50
2022-11-20T08:59:43.392Z,88.50
2022-11-20T09:01:53.820Z,88.70
2022-11-20T09:04:22.150Z,88.40
2022-11-20T09:06:52.055Z,88.40
2022-11-20T09:09:22.258Z,88.50
2022-11-20T09:11:52.000Z,88.70
2022-11-20T09:14:20.283Z,88.60
2022-11-20T09:16:48.711Z,88.60
2022-11-20T09:22:05.557Z,88.50
2022-11-20T09:24:35.306Z,88.70
2022-11-20T09:27:07.348Z,88.70
2022-11-20T09:29:35.619Z,88.50
2022-11-20T09:32:03.933Z,88.60
2022-11-20T09:34:32.212Z,88.70
2022-11-20T09:37:03.143Z,88.70
2022-11-20T09:39:39.917Z,88.90
2022-11-20T09:42:27.916Z,88.80
2022-11-20T09:45:18.426Z,89.10
2022-11-20T09:48:16.690Z,89.10
2022-11-20T09:50:52.009Z,89.30
2022-11-20T09:53:32.035Z,89.40
2022-11-20T09:56:05.251Z,89.60
2022-11-20T09:58:38.997Z,89.70
2022-11-20T10:01:15.065Z,89.80
2022-11-20T10:03:57.206Z,89.80
2022-11-20T10:06:32.994Z,90.00
2022-11-20T10:09:16.607Z,89.80
2022-11-20T10:11:54.486Z,89.80
2022-11-20T10:14:35.114Z,89.80
2022-11-20T10:17:13.824Z,89.80
2022-11-20T10:20:05.028Z,90.00
2022-11-20T10:22:50.783Z,90.00
2022-11-20T10:25:22.207Z,89.80
2022-11-20T10:28:22.269Z,90.00
2022-11-20T10:30:59.354Z,89.80
2022-11-20T10:33:50.160Z,89.60
2022-11-20T10:36:27.502Z,89.40
2022-11-20T10:39:00.875Z,89.70
2022-11-20T10:41:37.110Z,89.80
2022-11-20T10:44:14.862Z,89.70
2022-11-20T10:46:47.187Z,89.70
2022-11-20T10:49:18.382Z,89.60
2022-11-20T10:52:00.317Z,89.60
2022-11-20T10:54:40.199Z,89.60
2022-11-20T10:57:22.474Z,89.10
2022-11-20T11:00:07.070Z,89.40
2022-11-20T11:02:42.121Z,89.30
2022-11-20T11:05:28.219Z,89.40
2022-11-20T11:07:58.493Z,89.40
2022-11-20T11:10:35.395Z,89.50
2022-11-20T11:13:03.749Z,89.20
2022-11-20T11:15:41.257Z,89.10
2022-11-20T11:18:12.474Z,89.10
2022-11-20T11:20:41.059Z,89.10
2022-11-20T11:23:34.353Z,89.00
2022-11-20T11:26:06.130Z,89.00
2022-11-20T11:28:35.421Z,89.00
2022-11-20T11:31:05.052Z,88.80
2022-11-20T11:33:35.781Z,88.90
2022-11-20T11:36:18.957Z,88.70
2022-11-20T11:38:47.355Z,88.80
2022-11-20T11:41:20.438Z,89.10
2022-11-20T11:44:08.741Z,88.90
2022-11-20T11:46:39.704Z,88.40
2022-11-20T11:49:20.275Z,88.50
2022-11-20T11:52:10.468Z,88.70
2022-11-20T11:54:45.624Z,88.50
2022-11-20T11:57:22.917Z,88.60
2022-11-20T12:00:03.487Z,88.50
2022-11-20T12:02:59.990Z,88.30
2022-11-20T12:05:33.151Z,88.50
2022-11-20T12:08:12.399Z,88.20
2022-11-20T12:10:47.506Z,88.50
2022-11-20T12:13:27.578Z,88.80
2022-11-20T12:15:56.029Z,88.40
2022-11-20T12:18:25.745Z,88.50
2022-11-20T12:21:09.933Z,88.40
2022-11-20T12:23:46.672Z,88.30
2022-11-20T12:26:29.436Z,88.50
2022-11-20T12:29:09.847Z,88.50
2022-11-20T12:31:57.153Z,88.80
2022-11-20T12:34:56.638Z,89.20
2022-11-20T12:37:39.770Z,89.50
2022-11-20T12:40:29.825Z,89.90
2022-11-20T12:43:30.916Z,89.90
2022-11-20T12:46:22.842Z,89.60
2022-11-20T12:49:19.062Z,90.10
2022-11-20T12:52:04.105Z,90.10
2022-11-20T12:54:50.893Z,90.10
2022-11-20T12:57:23.957Z,90.40
2022-11-20T13:00:15.039Z,90.50
2022-11-20T13:03:34.352Z,90.30
2022-11-20T13:06:15.523Z,90.50
2022-11-20T13:08:49.594Z,90.40
2022-11-20T13:11:25.884Z,90.60
2022-11-20T13:14:14.190Z,90.70
2022-11-20T13:16:52.165Z,90.40
2022-11-20T13:19:21.576Z,90.30
2022-11-20T13:21:52.317Z,90.30
2022-11-20T13:24:28.770Z,90.40
2022-11-20T13:27:06.465Z,90.40
2022-11-20T13:29:36.189Z,90.50
2022-11-20T13:32:08.376Z,90.40
2022-11-20T13:34:38.080Z,90.60
2022-11-20T13:37:06.515Z,90.40
2022-11-20T13:39:38.366Z,90.60
2022-11-20T13:42:27.601Z,90.70
2022-11-20T13:44:57.752Z,90.40
2022-11-20T13:47:28.639Z,90.40
2022-11-20T13:50:00.364Z,90.60
2022-11-20T13:52:46.918Z,90.80
2022-11-20T13:55:24.649Z,90.90
2022-11-20T13:58:29.618Z,90.80
2022-11-20T14:01:03.401Z,90.80
2022-11-20T14:04:04.623Z,90.60
2022-11-20T14:06:29.909Z,90.60
2022-11-20T14:09:00.688Z,90.60
2022-11-20T14:11:32.010Z,90.70
2022-11-20T14:14:03.973Z,90.70
2022-11-20T14:16:36.655Z,90.70
2022-11-20T14:19:31.259Z,90.60
2022-11-20T14:22:22.985Z,90.80
2022-11-20T14:25:04.470Z,90.80
2022-11-20T14:27:39.005Z,90.80
2022-11-20T14:30:13.734Z,90.80
2022-11-20T14:32:43.408Z,90.80
2022-11-20T14:35:19.994Z,90.60
2022-11-20T14:37:48.474Z,90.60
2022-11-20T14:40:32.131Z,90.60
2022-11-20T14:43:02.021Z,90.60
2022-11-20T14:45:30.722Z,90.70
2022-11-20T14:48:01.937Z,90.60
2022-11-20T14:50:31.856Z,90.80
2022-11-20T14:53:02.679Z,90.70
2022-11-20T14:55:34.195Z,90.80
2022-11-20T14:58:06.835Z,90.90
2022-11-20T15:00:38.135Z,91.10
2022-11-20T15:03:18.616Z,91.40
2022-11-20T15:05:49.612Z,91.50
2022-11-20T15:08:18.953Z,91.80
2022-11-20T15:10:52.990Z,92.10
2022-11-20T15:13:29.426Z,92.30
2022-11-20T15:15:59.475Z,92.50
2022-11-20T15:18:33.250Z,92.60
2022-11-20T15:21:04.719Z,92.80
2022-11-20T15:23:32.974Z,92.90
2022-11-20T15:26:01.325Z,93.10
2022-11-20T15:28:35.112Z,93.20
2022-11-20T15:31:04.125Z,93.40
2022-11-20T15:33:32.765Z,93.50
2022-11-20T15:36:01.359Z,93.60
2022-11-20T15:38:29.695Z,93.70
2022-11-20T15:40:58.597Z,93.80
2022-11-20T15:43:26.920Z,93.90
2022-11-20T15:46:02.234Z,94.00
2022-11-20T15:48:33.864Z,94.00
2022-11-20T15:51:07.712Z,94.10
2022-11-20T15:53:35.953Z,94.20
2022-11-20T15:56:04.531Z,94.20
2022-11-20T15:58:32.895Z,94.30
2022-11-20T16:01:02.869Z,94.40
2022-11-20T16:03:31.543Z,94.40
2022-11-20T16:05:59.809Z,94.50
2022-11-20T16:08:28.132Z,94.50
2022-11-20T16:10:56.377Z,94.60
2022-11-20T16:13:42.376Z,94.60
2022-11-20T16:16:22.201Z,94.70
2022-11-20T16:18:50.793Z,94.70
2022-11-20T16:21:19.210Z,94.80
2022-11-20T16:23:47.492Z,94.80
2022-11-20T16:26:19.423Z,94.90
2022-11-20T16:28:47.740Z,94.90
2022-11-20T16:31:19.696Z,94.90
2022-11-20T16:33:52.922Z,95.00
2022-11-20T16:36:22.707Z,95.00
2022-11-20T16:38:55.277Z,95.10
2022-11-20T16:41:24.572Z,95.20
2022-11-20T16:43:55.180Z,95.20
2022-11-20T16:46:26.994Z,95.20
2022-11-20T16:48:56.876Z,95.20
2022-11-20T16:51:25.937Z,95.20
2022-11-20T16:53:55.899Z,95.30
2022-11-20T16:56:26.623Z,95.30
2022-11-20T16:58:57.484Z,95.30
2022-11-20T17:01:29.079Z,95.40
2022-11-20T17:04:00.311Z,95.40
2022-11-20T17:06:29.803Z,95.50
2022-11-20T17:08:58.872Z,95.50
2022-11-20T17:11:28.304Z,95.50
2022-11-20T17:13:57.415Z,95.50
2022-11-20T17:16:27.121Z,95.50
2022-11-20T17:19:01.316Z,95.60
2022-11-20T17:21:34.282Z,95.60
2022-11-20T17:24:03.522Z,95.60
2022-11-20T17:26:32.564Z,95.60
2022-11-20T17:29:03.149Z,95.70
2022-11-20T17:31:35.300Z,95.70
2022-11-20T17:34:04.204Z,95.70
2022-11-20T17:36:33.323Z,95.70
2022-11-20T17:39:01.916Z,95.80
2022-11-20T17:41:31.120Z,95.80
2022-11-20T17:44:02.235Z,95.80
2022-11-20T17:46:33.813Z,95.80
2022-11-20T17:49:02.955Z,95.80
2022-11-20T17:51:34.890Z,95.90
2022-11-20T17:54:07.378Z,95.90
2022-11-20T17:56:54.287Z,95.90
2022-11-20T17:59:23.066Z,95.90
2022-11-20T18:01:54.587Z,96.00
2022-11-20T18:04:23.851Z,96.00
2022-11-20T18:06:52.297Z,96.00
2022-11-20T18:09:20.620Z,96.00
2022-11-20T18:11:48.941Z,96.00
2022-11-20T18:14:32.085Z,96.00
2022-11-20T18:17:04.496Z,96.10
2022-11-20T18:19:40.941Z,96.10
2022-11-20T18:22:13.877Z,96.10
2022-11-20T18:24:43.258Z,96.10
2022-11-20T18:27:17.849Z,96.20
2022-11-20T18:29:51.659Z,96.20
2022-11-20T18:32:23.145Z,96.20
2022-11-20T18:34:52.022Z,96.20
2022-11-20T18:37:20.388Z,96.20
2022-11-20T18:39:50.384Z,96.20
2022-11-20T18:42:36.568Z,96.30
2022-11-20T18:45:06.487Z,96.20
2022-11-20T18:47:40.557Z,96.30
2022-11-20T18:50:10.642Z,96.30
2022-11-20T18:52:44.713Z,96.30
2022-11-20T18:55:13.744Z,96.20
2022-11-20T18:57:44.151Z,96.20
2022-11-20T19:00:14.211Z,96.20
2022-11-20T19:02:44.002Z,96.20
2022-11-20T19:05:13.441Z,96.20
2022-11-20T19:07:41.959Z,96.20
2022-11-20T19:10:10.915Z,96.20
2022-11-20T19:12:39.218Z,96.20
2022-11-20T19:15:08.728Z,96.20
2022-11-20T19:17:37.083Z,96.10
2022-11-20T19:20:08.258Z,96.10
2022-11-20T19:22:36.344Z,96.10
2022-11-20T19:25:05.329Z,96.10
2022-11-20T19:27:33.607Z,96.00
2022-11-20T19:30:03.540Z,96.00
2022-11-20T19:32:32.548Z,96.00
2022-11-20T19:35:00.903Z,96.00
2022-11-20T19:37:30.644Z,96.00
2022-11-20T19:39:59.830Z,95.90
2022-11-20T19:42:28.276Z,95.90
2022-11-20T19:44:58.148Z,95.80
2022-11-20T19:47:46.033Z,95.80
2022-11-20T19:50:16.028Z,95.80
2022-11-20T19:52:45.716Z,95.80
2022-11-20T19:55:14.087Z,95.80
2022-11-20T19:57:42.395Z,95.80
2022-11-20T20:00:15.928Z,95.80
2022-11-20T20:02:46.760Z,95.80
2022-11-20T20:05:15.060Z,95.80
2022-11-20T20:07:43.348Z,95.80
2022-11-20T20:10:13.245Z,95.80
2022-11-20T20:12:41.633Z,95.70
2022-11-20T20:15:10.687Z,95.70
2022-11-20T20:17:38.976Z,95.80
2022-11-20T20:20:08.716Z,95.80
2022-11-20T20:22:37.118Z,95.80
2022-11-20T20:25:06.424Z,95.80
2022-11-20T20:27:36.747Z,95.70
2022-11-20T20:30:05.837Z,95.70
2022-11-20T20:32:34.994Z,95.80
2022-11-20T20:35:03.373Z,95.80
2022-11-20T20:37:31.666Z,95.80
2022-11-20T20:39:59.910Z,95.80
2022-11-20T20:42:28.132Z,95.80
2022-11-20T20:45:11.127Z,95.80
2022-11-20T20:47:41.392Z,95.80
2022-11-20T20:50:12.457Z,95.80
2022-11-20T20:52:40.802Z,95.80
2022-11-20T20:55:10.295Z,95.80
2022-11-20T20:57:38.613Z,95.80
2022-11-20T21:00:10.360Z,95.80
2022-11-20T21:02:38.893Z,95.90
2022-11-20T21:05:08.091Z,95.90
2022-11-20T21:07:56.411Z,95.90
2022-11-20T21:10:24.682Z,95.90
2022-11-20T21:12:53.160Z,95.90
2022-11-20T21:15:22.919Z,95.90
2022-11-20T21:17:51.163Z,95.90
2022-11-20T21:20:33.467Z,95.90
2022-11-20T21:23:01.892Z,95.90
2022-11-20T21:25:30.226Z,95.90
2022-11-20T21:27:58.481Z,95.80
2022-11-20T21:30:28.158Z,95.90
2022-11-20T21:32:57.246Z,95.80
2022-11-20T21:35:25.580Z,95.80
2022-11-20T21:37:53.965Z,95.80
2022-11-20T21:40:22.519Z,95.80
2022-11-20T21:42:50.765Z,95.80
2022-11-20T21:45:19.168Z,95.70
2022-11-20T21:47:50.784Z,95.70
2022-11-20T21:50:19.715Z,95.70
2022-11-20T21:52:47.983Z,95.60
2022-11-20T21:55:16.307Z,95.60
2022-11-20T21:57:44.616Z,95.60
2022-11-20T22:00:14.633Z,95.60
2022-11-20T22:02:42.929Z,95.60
2022-11-20T22:05:12.873Z,95.50
2022-11-20T22:07:45.691Z,95.50
2022-11-20T22:10:18.462Z,95.50
2022-11-20T22:12:47.182Z,95.50
2022-11-20T22:15:23.742Z,95.40
2022-11-20T22:18:18.169Z,95.40
2022-11-20T22:20:47.822Z,95.40
2022-11-20T22:23:16.094Z,95.50
2022-11-20T22:25:44.377Z,95.50
2022-11-20T22:28:12.654Z,95.50
2022-11-20T22:30:40.907Z,95.60
2022-11-20T22:33:13.564Z,95.60
2022-11-20T22:35:42.472Z,95.60
2022-11-20T22:38:12.093Z,95.60
2022-11-20T22:40:40.354Z,95.60
2022-11-20T22:43:08.645Z,95.60
2022-11-20T22:45:36.940Z,95.60
2022-11-20T22:48:06.024Z,95.70
2022-11-20T22:50:34.331Z,95.70
2022-11-20T22:53:02.654Z,95.70
2022-11-20T22:55:34.333Z,95.70
2022-11-20T22:58:02.587Z,95.80
2022-11-20T23:00:30.945Z,95.80
2022-11-20T23:02:59.220Z,95.80
2022-11-20T23:05:27.542Z,95.80
2022-11-20T23:07:55.819Z,95.80
2022-11-20T23:10:24.076Z,95.80
2022-11-20T23:12:53.749Z,95.80
2022-11-20T23:15:21.988Z,95.80
2022-11-20T23:17:50.291Z,95.80
2022-11-20T23:20:18.779Z,95.80
2022-11-20T23:22:47.100Z,95.80
2022-11-20T23:25:15.641Z,95.70
2022-11-20T23:27:43.891Z,95.70
2022-11-20T23:30:14.201Z,95.70
2022-11-20T23:32:42.502Z,95.70
2022-11-20T23:35:11.210Z,95.70
2022-11-20T23:37:39.500Z,95.70
2022-11-20T23:40:09.654Z,95.70
2022-11-20T23:42:57.922Z,95.60
2022-11-20T23:45:27.607Z,95.70
2022-11-20T23:47:55.959Z,95.70
2022-11-20T23:50:24.206Z,95.70
2022-11-20T23:52:52.450Z,95.70
2022-11-20T23:55:20.773Z,95.70
2022-11-20T23:57:48.984Z,95.80
